Clallam Bay, WA

4:54 AM PST on December 18, 2014 (GMT -0800)
Lake Ozette | Change Station
CLOSE
Current Station
Personal Weather Station
Location: Clallam Bay, WA
Elevation: 125 ft
Nearby Weather Stations

Elev 125 ft 48.15 °N, 124.66 °W | Updated 8 seconds ago

Overcast
Overcast
45.7 °F
Feels Like 41 °F
N
8.1
Wind Variable Wind from ESE
Gusts 0.0 mph

Today
High -- | Low -- °F
--% Chance of Precip.
Yesterday
High -- | Low -- °F
Precip. -- in
8:04 AM 4:26 PM
Waning Crescent, 14% visible
Pressure 29.88 in
Visibility 8.0 miles
Clouds Scattered Clouds 1300 ft
Mostly Cloudy 3300 ft
Windchill 41 °F
Dew Point 40 °F
Humidity 81%
Rainfall 0.00 in
Snow Depth Not available.
UV 0 out of 12
Pollen .30 out of 12
Air Quality Not available.
Flu Activity Not available.
SPECI KUIL 181242Z AUTO 13003KT 8SM SCT013 BKN033 07/07 A2988 RMK AO2 T00720067

More Conditions Fewer Conditions

Pressure 29.88 in
Visibility 8.0 miles
Clouds Scattered Clouds 1300 ft
Mostly Cloudy 3300 ft
Windchill 41 °F
Dew Point 40 °F
Humidity 81%
Rainfall 0.00 in
Snow Depth Not available.
UV 0 out of 12
Pollen .30 out of 12
Air Quality Not available.
Flu Activity Not available.
SPECI KUIL 181242Z AUTO 13003KT 8SM SCT013 BKN033 07/07 A2988 RMK AO2 T00720067

More Conditions Fewer Conditions

10-Day Weather Forecast

Almanac

Astronomy

Dec. 18, 2014 Rise Set
Actual Time
Civil Twilight
Nautical Twilight
Astronomical Twilight
Moon
Length of Visible Light
Length of Day
Tomorrow will be .
, % of the Moon is Illuminated

Today's Extremes

State Highs State Lows

Community

WunderPhotos

Upload Photos

1,778,923 photos uploaded!

WunderBlogs® & News

Nearby

Air Quality

  Air Quality AQ Index Pollutant
Not available.

Snow Depth

Station Depth Elevation

Earthquake Activity

City Distance Mag. Time & Date
Minimum magnitude displayed is 2.5.

Coastal Water Temperatures

Place Temperature

Nearby Weather Stations